Time;durP1;ratioP1;P1;durP2;ratioP2;P2;SDS_P1;SDS_P2;PMS_P1;PMS_P2;Temp;Humidity;BMP_temperature;BMP_pressure;BME280_temperature;BME280_humidity;BME280_pressure;Samples;Min_cycle;Max_cycle;Signal;HPM_P1;HPM_P2
2022/10/19 00:01:53;;;;;;;7.20;3.40;;;9.10;99.90;;;;;;6215723;23;20208;-40
2022/10/19 00:04:18;;;;;;;9.27;3.63;;;9.10;99.90;;;;;;6215646;23;20228;-41
2022/10/19 00:06:45;;;;;;;8.43;3.60;;;9.10;99.90;;;;;;6216354;23;20150;-40
2022/10/19 00:09:16;;;;;;;12.47;3.67;;;9.00;99.90;;;;;;6216068;23;20154;-41
2022/10/19 00:11:45;;;;;;;7.60;3.33;;;9.00;99.90;;;;;;6215659;23;20194;-40
2022/10/19 00:14:22;;;;;;;8.13;3.67;;;8.90;99.90;;;;;;6215611;23;20152;-42
2022/10/19 00:16:49;;;;;;;6.93;3.07;;;8.90;99.90;;;;;;6215868;23;20260;-40
2022/10/19 00:19:26;;;;;;;13.33;4.30;;;8.80;99.90;;;;;;6215925;23;20167;-40
2022/10/19 00:21:52;;;;;;;9.80;3.23;;;8.80;99.90;;;;;;6215948;23;20148;-40
2022/10/19 00:24:18;;;;;;;10.73;4.27;;;8.80;99.90;;;;;;6216630;23;20188;-41
2022/10/19 00:26:43;;;;;;;8.27;3.53;;;8.80;99.90;;;;;;6217669;23;20607;-40
2022/10/19 00:29:11;;;;;;;6.30;3.43;;;8.80;99.90;;;;;;6217683;23;20178;-40
2022/10/19 00:31:37;;;;;;;9.07;3.93;;;8.80;99.90;;;;;;6217660;23;20171;-41
2022/10/19 00:34:02;;;;;;;8.03;3.77;;;8.80;99.90;;;;;;6217654;23;20519;-43
2022/10/19 00:36:32;;;;;;;9.83;3.53;;;8.80;99.90;;;;;;6217533;23;20620;-42
2022/10/19 00:38:58;;;;;;;14.47;3.80;;;8.80;99.90;;;;;;6217692;23;20158;-43
2022/10/19 00:41:27;;;;;;;10.07;3.60;;;8.80;99.90;;;;;;6217605;23;20154;-42
2022/10/19 00:44:00;;;;;;;8.80;3.43;;;8.70;99.90;;;;;;6218006;23;20180;-42
2022/10/19 00:46:28;;;;;;;8.07;3.23;;;8.70;99.90;;;;;;6217904;23;20184;-42
2022/10/19 00:49:12;;;;;;;8.53;3.30;;;8.60;99.90;;;;;;6217860;23;20161;-41
2022/10/19 00:51:41;;;;;;;6.43;3.20;;;8.60;99.90;;;;;;6217927;23;20478;-41
2022/10/19 00:54:08;;;;;;;5.60;3.40;;;8.50;99.90;;;;;;6217577;23;20652;-43
2022/10/19 00:56:36;;;;;;;4.90;3.13;;;8.50;99.90;;;;;;6217579;23;20152;-42
2022/10/19 00:59:04;;;;;;;6.40;2.70;;;8.40;99.90;;;;;;6218400;23;20172;-42
2022/10/19 01:01:30;;;;;;;6.40;3.10;;;8.30;99.90;;;;;;6217686;23;20163;-41
2022/10/19 01:03:56;;;;;;;6.97;3.10;;;8.20;99.90;;;;;;6217791;23;20160;-41
2022/10/19 01:06:23;;;;;;;4.03;2.50;;;8.20;99.90;;;;;;6217297;23;20676;-43
2022/10/19 01:08:48;;;;;;;7.57;3.23;;;8.10;99.90;;;;;;6217187;23;20178;-43
2022/10/19 01:11:23;;;;;;;6.77;3.10;;;8.00;99.90;;;;;;6217277;23;20175;-42
2022/10/19 01:14:00;;;;;;;4.47;2.80;;;8.00;99.90;;;;;;6217791;23;20148;-42
2022/10/19 01:16:41;;;;;;;7.30;3.53;;;7.90;99.90;;;;;;6217821;23;20205;-44
2022/10/19 01:19:31;;;;;;;4.33;2.63;;;7.90;99.90;;;;;;6218254;23;20594;-42
2022/10/19 01:22:06;;;;;;;7.13;3.37;;;7.90;99.90;;;;;;6218222;23;20551;-41
2022/10/19 01:24:44;;;;;;;9.37;3.60;;;7.90;99.90;;;;;;6217724;23;20591;-40
2022/10/19 01:27:37;;;;;;;7.43;2.90;;;7.90;99.90;;;;;;6217607;23;20626;-41
2022/10/19 01:30:16;;;;;;;6.20;2.87;;;7.90;99.90;;;;;;6217191;23;20546;-39
2022/10/19 01:32:57;;;;;;;8.90;3.00;;;7.80;99.90;;;;;;6217565;23;20145;-42
2022/10/19 01:35:41;;;;;;;4.50;2.80;;;7.80;99.90;;;;;;6216580;23;20168;-42
2022/10/19 01:38:28;;;;;;;7.07;3.03;;;7.80;99.90;;;;;;6215451;23;20271;-41
2022/10/19 01:41:06;;;;;;;5.80;3.40;;;7.70;99.90;;;;;;6217254;23;20176;-41
2022/10/19 01:43:47;;;;;;;10.77;3.57;;;7.60;99.90;;;;;;6217725;23;20551;-41
2022/10/19 01:46:37;;;;;;;10.60;3.57;;;7.60;99.90;;;;;;6217272;23;20251;-41
2022/10/19 01:49:15;;;;;;;6.40;3.00;;;7.60;99.90;;;;;;6217290;23;20147;-40
2022/10/19 01:51:50;;;;;;;8.83;3.00;;;7.60;99.90;;;;;;6217021;23;20527;-40
2022/10/19 01:54:17;;;;;;;8.47;3.20;;;7.50;99.90;;;;;;6217676;23;20448;-41
2022/10/19 01:56:45;;;;;;;5.10;2.87;;;7.50;99.90;;;;;;6216760;23;20172;-39
2022/10/19 01:59:12;;;;;;;6.63;3.57;;;7.50;99.90;;;;;;6217228;23;20153;-42
2022/10/19 02:01:43;;;;;;;11.70;3.37;;;7.50;99.90;;;;;;6216929;23;20191;-40
2022/10/19 02:04:12;;;;;;;9.33;3.50;;;7.50;99.90;;;;;;6217250;23;20141;-39
2022/10/19 02:06:38;;;;;;;8.57;3.10;;;7.40;99.90;;;;;;6216956;23;20560;-40
2022/10/19 02:09:03;;;;;;;5.67;3.30;;;7.40;99.90;;;;;;6216826;23;20240;-42
2022/10/19 02:11:30;;;;;;;10.37;4.50;;;7.50;99.90;;;;;;6216468;23;20603;-43
2022/10/19 02:14:03;;;;;;;9.47;3.83;;;7.50;99.90;;;;;;6216805;23;20509;-43
2022/10/19 02:16:35;;;;;;;6.83;3.37;;;7.50;99.90;;;;;;6216555;23;20160;-42
2022/10/19 02:19:02;;;;;;;8.13;3.77;;;7.50;99.90;;;;;;6217416;23;20164;-42
2022/10/19 02:21:27;;;;;;;8.90;3.43;;;7.40;99.90;;;;;;6217082;23;20343;-39
2022/10/19 02:23:53;;;;;;;9.73;3.70;;;7.40;99.90;;;;;;6216631;23;20183;-42
2022/10/19 02:26:20;;;;;;;7.53;3.30;;;7.40;99.90;;;;;;6216553;23;20180;-40
2022/10/19 02:28:47;;;;;;;12.43;4.33;;;7.30;99.90;;;;;;6216533;23;20622;-40
2022/10/19 02:31:13;;;;;;;13.97;4.30;;;7.40;99.90;;;;;;6216869;23;20153;-41
2022/10/19 02:33:38;;;;;;;6.97;3.77;;;7.40;99.90;;;;;;6216801;23;20620;-42
2022/10/19 02:36:04;;;;;;;11.83;3.87;;;7.40;99.90;;;;;;6216579;23;20153;-41
2022/10/19 02:38:30;;;;;;;13.43;4.03;;;7.40;99.90;;;;;;6216541;23;20180;-42
2022/10/19 02:41:14;;;;;;;6.53;3.60;;;7.30;99.90;;;;;;6216891;23;20157;-41
2022/10/19 02:43:43;;;;;;;14.00;3.97;;;7.40;99.90;;;;;;6217490;23;20527;-42
2022/10/19 02:46:33;;;;;;;12.87;3.87;;;7.40;99.90;;;;;;6216331;23;20227;-41
2022/10/19 02:49:01;;;;;;;12.07;4.10;;;7.40;99.90;;;;;;6216647;23;20191;-40
2022/10/19 02:51:33;;;;;;;8.43;3.87;;;7.40;99.90;;;;;;6216733;23;20183;-42
2022/10/19 02:53:58;;;;;;;7.73;3.63;;;7.50;99.90;;;;;;6216384;23;20141;-42
2022/10/19 02:56:24;;;;;;;10.67;3.90;;;7.50;99.90;;;;;;6216233;23;20542;-40
2022/10/19 02:58:50;;;;;;;9.47;4.27;;;7.50;99.90;;;;;;6217448;23;20185;-42
2022/10/19 03:01:15;;;;;;;9.93;4.60;;;7.50;99.90;;;;;;6216395;23;20165;-42
2022/10/19 03:03:41;;;;;;;10.27;4.10;;;7.50;99.90;;;;;;6216504;23;20210;-42
2022/10/19 03:06:06;;;;;;;9.30;3.50;;;7.40;99.90;;;;;;6216804;23;20578;-43
2022/10/19 03:08:32;;;;;;;11.50;3.87;;;7.40;99.90;;;;;;6216525;23;20195;-41
2022/10/19 03:10:58;;;;;;;8.97;3.43;;;7.30;99.90;;;;;;6216134;23;20241;-41
2022/10/19 03:39:14;;;;;;;13.83;5.00;;;7.60;99.90;;;;;;6246489;23;20175;-39
2022/10/19 03:41:40;;;;;;;13.23;5.70;;;7.70;99.90;;;;;;6246817;23;20523;-41
2022/10/19 03:44:08;;;;;;;12.03;5.20;;;7.70;99.90;;;;;;6246348;23;20159;-40
2022/10/19 03:46:34;;;;;;;9.33;5.17;;;7.70;99.90;;;;;;6245980;23;20194;-40
2022/10/19 03:49:01;;;;;;;17.87;5.20;;;7.70;99.90;;;;;;6246079;23;20152;-38
2022/10/19 03:51:29;;;;;;;14.30;5.13;;;7.70;99.90;;;;;;6246185;23;20206;-39
2022/10/19 03:54:02;;;;;;;17.63;5.50;;;7.70;99.90;;;;;;6246078;23;20159;-38
2022/10/19 03:56:29;;;;;;;15.47;5.13;;;7.70;99.90;;;;;;6246242;23;20144;-41
2022/10/19 03:58:56;;;;;;;17.30;5.93;;;7.70;99.90;;;;;;6218984;23;20478;-39
2022/10/19 04:01:37;;;;;;;11.80;5.33;;;7.70;99.90;;;;;;6219297;23;20186;-41
2022/10/19 04:04:08;;;;;;;13.70;5.50;;;7.70;99.90;;;;;;6219293;23;20542;-41
2022/10/19 04:06:38;;;;;;;23.13;7.13;;;7.70;99.90;;;;;;6245865;23;20163;-40
2022/10/19 04:09:06;;;;;;;20.13;6.13;;;7.80;99.90;;;;;;6246137;23;20142;-42
2022/10/19 04:11:33;;;;;;;10.43;4.93;;;7.60;99.90;;;;;;6219565;23;20639;-40
2022/10/19 04:13:59;;;;;;;10.93;5.20;;;7.60;99.90;;;;;;6219120;23;20155;-40
2022/10/19 04:16:27;;;;;;;17.17;5.73;;;7.60;99.90;;;;;;6219252;23;20159;-40
2022/10/19 04:18:55;;;;;;;12.50;5.87;;;7.50;99.90;;;;;;6245885;23;20609;-41
2022/10/19 04:21:26;;;;;;;16.13;6.00;;;7.50;99.90;;;;;;6219495;23;20160;-41
2022/10/19 04:23:56;;;;;;;8.97;5.17;;;7.50;99.90;;;;;;6245925;23;20160;-41
2022/10/19 04:26:31;;;;;;;18.60;6.37;;;7.50;99.90;;;;;;6245946;23;20179;-41
2022/10/19 04:28:57;;;;;;;14.47;5.17;;;7.50;99.90;;;;;;6195229;23;20574;-40
2022/10/19 04:31:23;;;;;;;15.77;5.57;;;7.60;99.90;;;;;;6219110;23;20162;-40
2022/10/19 04:33:49;;;;;;;15.50;5.30;;;7.60;99.90;;;;;;6219131;23;20159;-40
2022/10/19 04:36:15;;;;;;;20.43;6.10;;;7.60;99.90;;;;;;6245963;23;20701;-41
2022/10/19 04:38:41;;;;;;;9.77;5.50;;;7.60;99.90;;;;;;6245883;23;20214;-42
2022/10/19 04:41:10;;;;;;;10.70;5.57;;;7.50;99.90;;;;;;6245978;23;20186;-41
2022/10/19 04:43:36;;;;;;;14.57;6.17;;;7.60;99.90;;;;;;6219093;23;20163;-40
2022/10/19 04:46:16;;;;;;;17.27;5.33;;;7.60;99.90;;;;;;6245945;23;20176;-41
2022/10/19 04:48:43;;;;;;;16.57;5.53;;;7.60;99.90;;;;;;6245823;23;20185;-42
2022/10/19 04:51:09;;;;;;;16.97;6.10;;;7.60;99.90;;;;;;6246086;23;20579;-43
2022/10/19 04:53:37;;;;;;;17.10;6.43;;;7.70;99.90;;;;;;6246237;23;20166;-39
2022/10/19 04:56:08;;;;;;;12.87;6.63;;;7.70;99.90;;;;;;6246060;23;20593;-38
2022/10/19 04:58:34;;;;;;;19.73;7.80;;;7.60;99.90;;;;;;6246481;23;20183;-39
2022/10/19 05:01:07;;;;;;;14.80;7.10;;;7.60;99.90;;;;;;6219095;23;20555;-39
2022/10/19 05:03:32;;;;;;;12.07;6.87;;;7.60;99.90;;;;;;6246912;23;20147;-41
2022/10/19 05:05:58;;;;;;;18.17;7.10;;;7.50;99.90;;;;;;6250772;23;20217;-46
2022/10/19 05:08:24;;;;;;;15.07;6.93;;;7.50;99.90;;;;;;6251183;23;20178;-44
2022/10/19 05:10:49;;;;;;;15.13;6.43;;;7.50;99.90;;;;;;6252388;22;20158;-45
2022/10/19 05:13:15;;;;;;;17.80;6.03;;;7.50;99.90;;;;;;6253890;23;20601;-45
2022/10/19 05:15:40;;;;;;;13.10;5.83;;;7.40;99.90;;;;;;6252921;23;20159;-46
2022/10/19 05:18:06;;;;;;;14.63;5.63;;;7.40;99.90;;;;;;6253431;23;20182;-43
2022/10/19 05:20:31;;;;;;;15.60;5.30;;;7.40;99.90;;;;;;6253728;23;20607;-45
2022/10/19 05:22:57;;;;;;;12.80;5.27;;;7.30;99.90;;;;;;6253434;23;20182;-45
2022/10/19 05:25:23;;;;;;;11.63;4.80;;;7.30;99.90;;;;;;6253948;23;20644;-43
2022/10/19 05:27:52;;;;;;;9.00;4.83;;;7.20;99.90;;;;;;6253496;23;20171;-45
2022/10/19 05:30:20;;;;;;;9.83;4.87;;;7.10;99.90;;;;;;6226502;23;20533;-45
2022/10/19 05:32:46;;;;;;;11.20;5.20;;;7.10;99.90;;;;;;6253499;23;20151;-44
2022/10/19 05:35:12;;;;;;;10.83;4.90;;;7.00;99.90;;;;;;6253714;23;20473;-46
2022/10/19 05:37:38;;;;;;;12.47;4.93;;;7.00;99.90;;;;;;6226719;23;20206;-44
2022/10/19 05:40:04;;;;;;;7.80;4.53;;;6.90;99.90;;;;;;6253540;23;20160;-46
2022/10/19 05:42:29;;;;;;;10.47;4.67;;;6.90;99.90;;;;;;6253841;23;20229;-44
2022/10/19 05:44:55;;;;;;;11.43;4.60;;;6.80;99.90;;;;;;6253404;23;20187;-45
2022/10/19 05:47:20;;;;;;;14.07;5.40;;;6.90;99.90;;;;;;6253522;23;20226;-47
2022/10/19 05:49:47;;;;;;;15.83;6.23;;;6.90;99.90;;;;;;6253196;23;20152;-47
2022/10/19 05:52:12;;;;;;;20.23;6.77;;;6.90;99.90;;;;;;6254035;23;20177;-45
2022/10/19 05:54:38;;;;;;;16.90;10.70;;;6.90;99.90;;;;;;6253594;23;20155;-44
2022/10/19 05:57:03;;;;;;;20.67;7.20;;;7.00;99.90;;;;;;6226288;23;20205;-45
2022/10/19 05:59:29;;;;;;;13.13;5.97;;;7.00;99.90;;;;;;6252931;23;20148;-47
2022/10/19 06:01:55;;;;;;;14.07;7.77;;;7.00;99.90;;;;;;6253636;23;20530;-46
2022/10/19 06:04:20;;;;;;;10.63;5.50;;;7.00;99.90;;;;;;6253367;23;20148;-44
2022/10/19 06:06:46;;;;;;;15.83;6.40;;;7.00;99.90;;;;;;6253323;23;20217;-44
2022/10/19 06:09:12;;;;;;;17.20;5.63;;;7.00;99.90;;;;;;6253323;23;20148;-46
2022/10/19 06:11:40;;;;;;;13.10;6.47;;;7.00;99.90;;;;;;6253524;23;20211;-44
2022/10/19 06:14:10;;;;;;;11.50;4.83;;;7.00;99.90;;;;;;6252651;23;20152;-44
2022/10/19 06:16:36;;;;;;;13.60;4.77;;;6.90;99.90;;;;;;6253432;23;20162;-45
2022/10/19 06:19:02;;;;;;;8.50;4.67;;;6.80;99.90;;;;;;6226436;23;20160;-45
2022/10/19 06:21:29;;;;;;;6.37;4.17;;;6.70;99.90;;;;;;6224973;23;20239;-45
2022/10/19 06:23:57;;;;;;;11.53;5.07;;;6.60;99.90;;;;;;6252109;23;20159;-44
2022/10/19 06:26:23;;;;;;;17.10;4.97;;;6.60;99.90;;;;;;6224868;23;20633;-47
2022/10/19 06:28:53;;;;;;;13.60;4.83;;;6.50;99.90;;;;;;6225382;23;20203;-46
2022/10/19 06:31:18;;;;;;;11.67;5.07;;;6.50;99.90;;;;;;6251961;23;20158;-45
2022/10/19 06:33:45;;;;;;;8.87;4.17;;;6.50;99.90;;;;;;6252024;23;20220;-45
2022/10/19 06:36:17;;;;;;;10.20;5.10;;;6.40;99.90;;;;;;6252163;23;20156;-47
2022/10/19 06:38:43;;;;;;;9.43;6.17;;;6.40;99.90;;;;;;6251864;23;20184;-45
2022/10/19 06:41:10;;;;;;;15.77;6.40;;;6.50;99.90;;;;;;6225329;23;20172;-45
2022/10/19 06:43:36;;;;;;;17.13;7.20;;;6.60;99.90;;;;;;6225484;23;20160;-47
2022/10/19 06:46:06;;;;;;;12.13;5.63;;;6.70;99.90;;;;;;6224245;23;20501;-46
2022/10/19 06:48:32;;;;;;;14.80;5.53;;;6.80;99.90;;;;;;6251609;23;20179;-46
2022/10/19 06:50:59;;;;;;;11.97;6.07;;;6.80;99.90;;;;;;6250773;23;20150;-44
2022/10/19 06:53:25;;;;;;;14.73;6.10;;;6.90;99.90;;;;;;6251476;23;20478;-47
2022/10/19 06:55:51;;;;;;;15.63;5.93;;;7.00;99.90;;;;;;6224223;23;20159;-46
2022/10/19 06:58:17;;;;;;;20.43;7.00;;;7.10;99.90;;;;;;6224444;23;20285;-43
2022/10/19 07:00:42;;;;;;;17.43;6.90;;;7.20;99.90;;;;;;6251605;23;20209;-46
2022/10/19 07:03:08;;;;;;;14.50;6.57;;;7.30;99.90;;;;;;6224406;23;20212;-45
2022/10/19 07:05:33;;;;;;;16.93;6.40;;;7.40;99.90;;;;;;6250970;23;20643;-46
2022/10/19 07:07:59;;;;;;;17.00;6.27;;;7.40;99.90;;;;;;6252183;23;20182;-43
2022/10/19 07:10:25;;;;;;;19.00;7.07;;;7.50;99.90;;;;;;6253713;23;20293;-46
2022/10/19 07:12:50;;;;;;;22.40;8.20;;;7.50;99.90;;;;;;6253428;23;20155;-44
2022/10/19 07:15:16;;;;;;;18.13;7.90;;;7.50;99.90;;;;;;6253479;23;20223;-46
2022/10/19 07:17:41;;;;;;;19.63;7.30;;;7.60;99.90;;;;;;6252177;23;20226;-46
2022/10/19 07:20:07;;;;;;;17.23;7.47;;;7.60;99.90;;;;;;6251982;23;20152;-46
2022/10/19 07:22:33;;;;;;;22.73;8.50;;;7.60;99.90;;;;;;6252704;23;20527;-46
2022/10/19 07:24:58;;;;;;;17.77;8.13;;;7.70;99.90;;;;;;6253135;23;20285;-46
2022/10/19 07:27:24;;;;;;;19.43;7.63;;;7.70;99.90;;;;;;6226011;23;20175;-46
2022/10/19 07:29:49;;;;;;;28.37;10.13;;;7.80;99.90;;;;;;6252903;23;20228;-46
2022/10/19 07:32:15;;;;;;;20.50;9.50;;;7.90;99.90;;;;;;6252750;23;20581;-44
2022/10/19 07:34:41;;;;;;;26.10;11.27;;;7.80;99.90;;;;;;6250926;23;20161;-46
2022/10/19 07:37:06;;;;;;;26.23;9.43;;;7.90;99.90;;;;;;6252085;23;20495;-46
2022/10/19 07:39:32;;;;;;;27.20;9.73;;;7.90;99.90;;;;;;6252536;23;20163;-45
2022/10/19 07:41:57;;;;;;;19.13;8.07;;;7.80;99.90;;;;;;6251608;23;20154;-45
2022/10/19 07:44:23;;;;;;;13.90;6.37;;;7.80;99.90;;;;;;6251563;23;20174;-45
2022/10/19 07:46:49;;;;;;;17.93;6.63;;;7.80;99.90;;;;;;6252113;23;20649;-44
2022/10/19 07:49:17;;;;;;;14.00;7.40;;;7.80;99.90;;;;;;6224662;23;20170;-46
2022/10/19 07:51:43;;;;;;;12.43;7.70;;;7.80;99.90;;;;;;6252057;23;20149;-45
2022/10/19 07:54:08;;;;;;;18.10;7.33;;;7.90;99.90;;;;;;6251335;23;20181;-45
2022/10/19 07:56:35;;;;;;;19.33;7.80;;;7.90;99.90;;;;;;6250544;23;20158;-45
2022/10/19 07:59:01;;;;;;;11.77;7.10;;;7.90;99.90;;;;;;6251010;23;20234;-45
2022/10/19 08:01:39;;;;;;;15.43;7.43;;;8.00;99.90;;;;;;6250785;23;20202;-45
2022/10/19 08:04:05;;;;;;;11.70;6.90;;;8.00;99.90;;;;;;6251244;23;20153;-46
2022/10/19 08:06:31;;;;;;;11.80;6.50;;;8.00;99.90;;;;;;6249853;23;20229;-45
2022/10/19 08:08:56;;;;;;;12.77;6.23;;;8.00;99.90;;;;;;6224319;23;20156;-46
2022/10/19 08:11:27;;;;;;;13.03;6.10;;;8.10;99.90;;;;;;6250758;23;20169;-46
2022/10/19 08:13:54;;;;;;;13.43;7.30;;;8.20;99.90;;;;;;6250483;23;20251;-46
2022/10/19 08:16:21;;;;;;;14.80;6.60;;;8.30;99.90;;;;;;6224195;23;20159;-43
2022/10/19 08:18:46;;;;;;;11.97;7.07;;;9.20;99.90;;;;;;6250737;23;20676;-44
2022/10/19 08:21:12;;;;;;;14.40;7.77;;;8.50;99.90;;;;;;6250644;23;20159;-46
2022/10/19 08:23:37;;;;;;;19.80;7.97;;;8.60;99.90;;;;;;6249929;23;20163;-43
2022/10/19 08:26:03;;;;;;;17.87;8.03;;;8.70;99.90;;;;;;6248917;23;20179;-44
2022/10/19 08:28:29;;;;;;;22.63;7.33;;;8.80;99.90;;;;;;6223777;23;20187;-46
2022/10/19 08:30:57;;;;;;;14.83;8.03;;;9.00;99.90;;;;;;6223225;23;20163;-45
2022/10/19 08:33:24;;;;;;;17.53;7.70;;;9.10;99.90;;;;;;6250383;23;20196;-45
2022/10/19 08:35:50;;;;;;;15.77;8.40;;;9.20;99.90;;;;;;6223660;23;20167;-43
2022/10/19 08:38:16;;;;;;;22.17;9.40;;;9.30;99.90;;;;;;6249887;23;20187;-45
2022/10/19 08:40:44;;;;;;;18.63;9.00;;;9.50;99.90;;;;;;6251104;23;20186;-45
2022/10/19 08:43:23;;;;;;;13.40;8.80;;;9.50;99.90;;;;;;6251446;23;20242;-44
2022/10/19 08:46:16;;;;;;;16.87;8.97;;;9.60;99.90;;;;;;6251773;23;20167;-45
2022/10/19 08:48:43;;;;;;;19.73;9.10;;;9.70;99.90;;;;;;6252984;23;20506;-44
2022/10/19 08:51:12;;;;;;;19.30;10.77;;;9.70;99.90;;;;;;6252944;23;20593;-44
2022/10/19 08:54:03;;;;;;;18.47;10.03;;;9.80;99.90;;;;;;6253607;23;20221;-43
2022/10/19 08:56:32;;;;;;;20.43;11.70;;;9.80;99.90;;;;;;6255776;23;20573;-44
2022/10/19 08:59:25;;;;;;;19.73;11.47;;;9.80;99.90;;;;;;6255799;23;20194;-44
2022/10/19 09:01:57;;;;;;;23.83;12.57;;;9.80;99.90;;;;;;6255224;23;20147;-44
2022/10/19 09:04:34;;;;;;;20.37;11.07;;;9.90;99.90;;;;;;6228398;23;20155;-44
2022/10/19 09:07:09;;;;;;;22.13;11.17;;;11.20;99.90;;;;;;6254689;23;20271;-46
2022/10/19 09:09:41;;;;;;;26.93;11.37;;;9.80;99.90;;;;;;6254981;23;20143;-45
2022/10/19 09:12:12;;;;;;;26.53;12.53;;;9.80;99.90;;;;;;6253322;23;20147;-45
2022/10/19 09:14:59;;;;;;;20.07;12.70;;;9.80;99.90;;;;;;6252510;23;20139;-44
2022/10/19 09:17:25;;;;;;;24.57;12.80;;;9.80;99.90;;;;;;6225297;23;20189;-46
2022/10/19 09:19:51;;;;;;;23.80;12.50;;;9.80;99.90;;;;;;6252232;23;20155;-45
2022/10/19 09:22:31;;;;;;;22.07;12.60;;;9.90;99.90;;;;;;6252722;23;20589;-44
2022/10/19 09:25:07;;;;;;;28.10;13.40;;;9.90;99.90;;;;;;6252442;23;20170;-47
2022/10/19 09:27:38;;;;;;;23.33;13.73;;;10.00;99.90;;;;;;6251810;23;20613;-47
2022/10/19 09:30:19;;;;;;;24.43;13.50;;;10.10;99.90;;;;;;6252473;23;20221;-44
2022/10/19 09:32:47;;;;;;;19.40;11.80;;;10.10;99.90;;;;;;6252153;23;20574;-45
2022/10/19 09:35:15;;;;;;;24.90;13.53;;;10.20;99.90;;;;;;6253069;23;20494;-45
2022/10/19 09:37:46;;;;;;;21.47;12.57;;;10.30;99.90;;;;;;6251989;23;20201;-45
2022/10/19 09:40:27;;;;;;;20.97;12.60;;;10.40;99.90;;;;;;6252401;23;20150;-46
2022/10/19 09:42:57;;;;;;;19.47;12.10;;;10.40;99.90;;;;;;6201140;23;20174;-46
2022/10/19 09:45:32;;;;;;;16.07;9.70;;;10.50;99.90;;;;;;6225247;23;20191;-45
2022/10/19 09:48:00;;;;;;;15.53;10.67;;;10.50;99.90;;;;;;6224992;23;20174;-44
2022/10/19 09:50:28;;;;;;;15.83;10.43;;;10.60;99.90;;;;;;6224846;23;20154;-46
2022/10/19 09:53:01;;;;;;;14.53;8.37;;;10.70;99.90;;;;;;6252478;23;20163;-44
2022/10/19 09:55:36;;;;;;;18.70;11.00;;;10.70;99.90;;;;;;6252708;23;20214;-44
2022/10/19 09:58:03;;;;;;;20.27;12.27;;;10.80;99.90;;;;;;6225044;23;20262;-44
2022/10/19 10:00:37;;;;;;;22.27;13.17;;;10.90;99.90;;;;;;6226746;23;20166;-47
2022/10/19 10:03:04;;;;;;;24.90;16.37;;;10.90;99.90;;;;;;6253088;23;20136;-47
2022/10/19 10:05:34;;;;;;;21.47;14.53;;;11.00;99.90;;;;;;6253342;23;20233;-47
2022/10/19 10:08:00;;;;;;;25.70;13.83;;;11.10;99.90;;;;;;6252916;23;20172;-44
2022/10/19 10:10:51;;;;;;;22.47;15.10;;;11.10;99.90;;;;;;6252800;23;20222;-47
2022/10/19 10:13:20;;;;;;;21.00;13.53;;;11.20;99.90;;;;;;6253248;23;20226;-47
2022/10/19 10:15:55;;;;;;;16.80;13.67;;;11.20;99.90;;;;;;6227132;23;20170;-45
2022/10/19 10:18:23;;;;;;;21.77;14.20;;;11.30;99.90;;;;;;6252544;23;20171;-44
2022/10/19 10:20:59;;;;;;;21.17;14.80;;;11.50;99.90;;;;;;6252340;23;20589;-46
2022/10/19 10:23:28;;;;;;;26.63;13.97;;;11.70;99.90;;;;;;6252585;23;20162;-46
2022/10/19 10:25:55;;;;;;;16.50;12.40;;;11.90;99.90;;;;;;6248684;23;20193;-41
2022/10/19 10:28:25;;;;;;;19.60;11.80;;;12.00;99.90;;;;;;6246841;23;20616;-42
2022/10/19 10:31:06;;;;;;;19.87;11.13;;;12.10;99.90;;;;;;6247641;23;20148;-41
2022/10/19 10:33:35;;;;;;;16.53;10.30;;;12.30;99.90;;;;;;6246892;23;20173;-41
2022/10/19 10:36:05;;;;;;;17.73;10.60;;;12.30;99.90;;;;;;6247153;23;20465;-40
2022/10/19 10:38:35;;;;;;;17.57;11.57;;;12.40;99.90;;;;;;6246617;23;20187;-40
2022/10/19 10:41:10;;;;;;;17.00;12.13;;;12.50;99.90;;;;;;6246886;23;20155;-41
2022/10/19 10:44:07;;;;;;;23.10;13.53;;;12.60;99.90;;;;;;6246791;23;20147;-38
2022/10/19 10:46:50;;;;;;;21.03;13.27;;;12.70;99.90;;;;;;6219881;23;20218;-42
2022/10/19 10:49:20;;;;;;;20.47;12.40;;;12.80;99.90;;;;;;6246717;23;20190;-39
2022/10/19 10:52:16;;;;;;;21.03;11.40;;;13.00;99.90;;;;;;6219830;23;20642;-42
2022/10/19 10:55:13;;;;;;;17.87;10.20;;;13.10;99.90;;;;;;6221388;23;20160;-40
2022/10/19 10:57:44;;;;;;;14.20;9.63;;;13.30;99.90;;;;;;6219828;23;20517;-40
2022/10/19 11:00:18;;;;;;;15.97;9.17;;;13.40;99.90;;;;;;6247382;23;20468;-37
2022/10/19 11:03:04;;;;;;;14.80;9.47;;;13.50;99.90;;;;;;6246489;23;20200;-44
2022/10/19 11:05:57;;;;;;;14.10;9.73;;;13.60;99.90;;;;;;6246654;23;20636;-41
2022/10/19 11:08:34;;;;;;;19.73;9.97;;;13.80;99.90;;;;;;6241912;23;20171;-42
2022/10/19 11:11:21;;;;;;;16.00;10.03;;;13.90;99.90;;;;;;6246875;23;20514;-40
2022/10/19 11:14:16;;;;;;;15.13;9.90;;;14.00;99.90;;;;;;6246923;23;20140;-40
2022/10/19 11:16:45;;;;;;;17.07;10.20;;;14.00;99.90;;;;;;6246756;23;20144;-43
2022/10/19 11:19:30;;;;;;;15.50;11.20;;;14.10;99.90;;;;;;6246504;23;20156;-43
2022/10/19 11:21:58;;;;;;;26.30;13.07;;;14.10;99.90;;;;;;6246739;23;20168;-43
2022/10/19 11:24:51;;;;;;;15.20;11.57;;;14.20;99.90;;;;;;6246727;23;20328;-42
2022/10/19 11:27:41;;;;;;;17.93;11.57;;;14.30;99.90;;;;;;6246276;23;20183;-41
2022/10/19 11:30:21;;;;;;;25.23;13.20;;;14.40;99.90;;;;;;6246494;23;20139;-42
2022/10/19 11:32:56;;;;;;;20.53;12.97;;;14.50;99.90;;;;;;6246374;23;20174;-37
2022/10/19 11:35:46;;;;;;;25.00;14.00;;;14.50;99.90;;;;;;6246384;23;20142;-42
2022/10/19 11:38:30;;;;;;;23.90;15.13;;;14.60;99.90;;;;;;6246205;23;20194;-43
2022/10/19 11:41:28;;;;;;;17.87;14.10;;;14.70;99.90;;;;;;6246535;23;20480;-40
2022/10/19 11:44:00;;;;;;;21.83;13.03;;;14.80;99.90;;;;;;6246910;23;20140;-43
2022/10/19 11:46:46;;;;;;;22.90;13.93;;;14.90;99.90;;;;;;6246448;23;20179;-41
2022/10/19 11:49:21;;;;;;;20.77;13.30;;;15.00;99.90;;;;;;6246469;23;20143;-41
2022/10/19 11:51:57;;;;;;;19.30;12.93;;;15.10;99.90;;;;;;6247116;23;20197;-43
2022/10/19 11:54:42;;;;;;;21.73;13.17;;;15.20;99.90;;;;;;6246872;23;20504;-42
2022/10/19 11:57:29;;;;;;;15.97;12.07;;;15.30;99.90;;;;;;6246081;23;20175;-41
2022/10/19 12:00:03;;;;;;;19.30;11.80;;;15.40;99.90;;;;;;6246543;23;20144;-43
2022/10/19 12:02:46;;;;;;;26.97;13.67;;;15.50;99.90;;;;;;6246569;23;20155;-41
2022/10/19 12:05:14;;;;;;;23.67;13.77;;;15.60;99.90;;;;;;6246992;23;20554;-43
2022/10/19 12:07:46;;;;;;;19.10;11.27;;;15.70;99.90;;;;;;6246055;23;20673;-44
2022/10/19 12:10:17;;;;;;;15.10;8.90;;;15.80;99.90;;;;;;6246141;23;20143;-40
2022/10/19 12:12:48;;;;;;;18.13;12.30;;;15.80;99.90;;;;;;6246451;23;20148;-42
2022/10/19 12:15:25;;;;;;;16.43;9.43;;;15.80;99.90;;;;;;6246384;23;20140;-40
2022/10/19 12:17:54;;;;;;;15.20;8.30;;;15.90;99.90;;;;;;6246277;23;20189;-43
2022/10/19 12:20:33;;;;;;;13.60;6.83;;;16.00;99.90;;;;;;6245825;23;20463;-43
2022/10/19 12:23:13;;;;;;;15.27;8.23;;;16.00;99.90;;;;;;6246346;23;20458;-42
2022/10/19 12:25:42;;;;;;;12.70;8.17;;;16.00;99.90;;;;;;6246076;23;20174;-43
2022/10/19 12:28:16;;;;;;;16.67;9.33;;;16.10;99.90;;;;;;6245884;23;20182;-42
2022/10/19 12:30:42;;;;;;;11.43;7.37;;;16.10;99.90;;;;;;6246242;23;20482;-44
2022/10/19 12:33:28;;;;;;;13.40;7.40;;;16.10;99.90;;;;;;6247039;23;20147;-44
2022/10/19 12:36:00;;;;;;;9.87;5.40;;;16.30;99.90;;;;;;6249942;23;20172;-48
2022/10/19 12:38:34;;;;;;;10.60;4.40;;;16.40;99.90;;;;;;6250758;23;20199;-46
2022/10/19 12:41:09;;;;;;;7.67;4.30;;;16.30;99.90;;;;;;6250988;23;20151;-48
2022/10/19 12:43:44;;;;;;;9.17;4.43;;;16.30;99.90;;;;;;6251230;23;20441;-47
2022/10/19 12:46:39;;;;;;;11.40;4.70;;;16.40;99.90;;;;;;6250125;23;20171;-48
2022/10/19 12:49:29;;;;;;;7.63;4.43;;;16.40;99.90;;;;;;6250414;23;20200;-47
2022/10/19 12:51:56;;;;;;;11.60;5.27;;;16.40;99.90;;;;;;6250429;23;20152;-48
2022/10/19 12:54:34;;;;;;;12.17;4.50;;;16.40;99.90;;;;;;6249920;23;20152;-49
2022/10/19 12:57:02;;;;;;;8.73;4.90;;;16.50;99.90;;;;;;6249423;23;20175;-46
2022/10/19 12:59:35;;;;;;;9.13;4.63;;;16.50;99.90;;;;;;6249427;23;20171;-46
2022/10/19 13:02:19;;;;;;;9.87;4.30;;;16.50;99.90;;;;;;6249074;23;20242;-46
2022/10/19 13:04:52;;;;;;;10.10;4.60;;;16.50;99.90;;;;;;6249238;23;20577;-46
2022/10/19 13:07:18;;;;;;;8.57;4.67;;;16.50;99.90;;;;;;6249129;23;20171;-48
2022/10/19 13:09:46;;;;;;;11.37;4.70;;;16.60;99.90;;;;;;6248917;23;20223;-47
2022/10/19 13:12:15;;;;;;;7.77;4.73;;;16.70;99.90;;;;;;6248828;23;20230;-46
2022/10/19 13:15:00;;;;;;;8.37;4.33;;;16.70;99.90;;;;;;6249467;23;20663;-46
2022/10/19 13:17:35;;;;;;;11.17;5.17;;;16.70;99.90;;;;;;6222455;23;20184;-47
2022/10/19 13:20:13;;;;;;;8.53;4.13;;;16.70;99.90;;;;;;6248998;23;20148;-46
2022/10/19 13:23:02;;;;;;;7.47;4.37;;;16.70;99.90;;;;;;6246670;23;20152;-41
2022/10/19 13:25:29;;;;;;;8.67;4.90;;;16.70;99.90;;;;;;6245874;23;20167;-39
2022/10/19 13:28:27;;;;;;;8.83;4.70;;;16.80;99.90;;;;;;6218962;23;20182;-41
2022/10/19 13:30:52;;;;;;;7.27;4.57;;;16.80;99.90;;;;;;6245662;23;20183;-45